• Join FlightAware (Why Join?)
  • Login
  • US Flag 
09:26AM EDT


 

Airport Tracker/Info


-or-


 

Live Flight TrackerFlight Track Log ✈ CES2228 ✈ 01-Sep-2013 ✈ ZUJZ / JZH - ZSPD / PVG

Flight Track Log - Related Links

Times and Time Zones

All times are in EDT time to prevent confusion due to time zone crossing. See the CES2228 flight status page for this flight to view local times or setup timezone preferences in your user account.

Time Position Orientation Groundspeed Altitude Reporting Facility
EDT Latitude Longitude Course Direction KTS MPH feet Rate Location/Type
09:46PM 32.7622 106.5387 91° East  Level Estimated
09:47PM 32.7560 106.6745 93° East  Level Estimated
09:48PM 32.7498 106.8102 93° East  Level Estimated
09:49PM 32.7433 106.9460 93° East  Level Estimated
09:50PM 32.7368 107.0818 93° East  Level Estimated
09:51PM 32.7300 107.2175 93° East  Level Estimated
09:52PM 32.7232 107.3532 93° East  Level Estimated
09:53PM 32.7162 107.4889 93° East  Level Estimated
09:54PM 32.7090 107.6246 94° East  Level Estimated
09:55PM 32.7017 107.7602 94° East  Level Estimated
09:56PM 32.6943 107.8959 94° East  Level Estimated
09:57PM 32.6867 108.0314 94° East  Level Estimated
09:58PM 32.6790 108.1670 94° East  Level Estimated
09:59PM 32.6711 108.3026 94° East  Level Estimated
10:00PM 32.6630 108.4381 94° East  Level Estimated
10:01PM 32.6549 108.5736 94° East  Level Estimated
10:02PM 32.6465 108.7091 94° East  Level Estimated
10:03PM 32.6381 108.8446 94° East  Level Estimated
10:04PM 32.6295 108.9800 94° East  Level Estimated
10:05PM 32.6207 109.1154 94° East  Level Estimated
10:06PM 32.6118 109.2508 94° East  Level Estimated
10:07PM 32.6027 109.3861 95° East  Level Estimated
10:08PM 32.5936 109.5215 95° East  Level Estimated
10:09PM 32.5842 109.6568 95° East  Level Estimated
10:10PM 32.5747 109.7920 95° East  Level Estimated
10:11PM 32.5651 109.9273 95° East  Level Estimated
10:12PM 32.5553 110.0625 95° East  Level Estimated
10:13PM 32.5454 110.1977 95° East  Level Estimated
10:14PM 32.5354 110.3328 95° East  Level Estimated
10:15PM 32.5252 110.4679 95° East  Level Estimated
10:16PM 32.5148 110.6030 95° East  Level Estimated
10:17PM 32.5043 110.7381 95° East  Level Estimated
10:18PM 32.4937 110.8731 95° East  Level Estimated
10:19PM 32.4829 111.0081 95° East  Level Estimated
10:20PM 32.4720 111.1431 95° East  Level Estimated
10:21PM 32.4609 111.2780 96° East  Level Estimated
10:22PM 32.4497 111.4129 96° East  Level Estimated
10:23PM 32.4383 111.5477 96° East  Level Estimated
10:24PM 32.4268 111.6826 96° East  Level Estimated
10:25PM 32.4151 111.8174 96° East  Level Estimated
10:26PM 32.4034 111.9521 96° East  Level Estimated
10:27PM 32.3914 112.0868 96° East  Level Estimated
10:28PM 32.3793 112.2215 96° East  Level Estimated
10:29PM 32.3671 112.3562 96° East  Level Estimated
10:30PM 32.3548 112.4908 96° East  Level Estimated
10:31PM 32.3423 112.6254 96° East  Level Estimated
10:32PM 32.3296 112.7599 96° East  Level Estimated
10:33PM 32.3168 112.8944 96° East  Level Estimated
10:34PM 32.3039 113.0289 96° East  Level Estimated
10:35PM 32.2908 113.1633 97° East  Level Estimated
10:36PM 32.2776 113.2977 97° East  Level Estimated
10:37PM 32.2642 113.4320 97° East  Level Estimated
10:38PM 32.2507 113.5663 97° East  Level Estimated
10:39PM 32.2371 113.7006 97° East  Level Estimated
10:40PM 32.2233 113.8348 97° East  Level Estimated
10:41PM 32.2094 113.9690 97° East  Level Estimated
10:42PM 32.1953 114.1031 97° East  Level Estimated
10:43PM 32.1811 114.2372 97° East  Level Estimated
10:44PM 32.1667 114.3713 97° East  Level Estimated
10:45PM 32.1522 114.5053 97° East  Level Estimated
10:46PM 32.1376 114.6393 97° East  Level Estimated
10:47PM 32.1228 114.7732 97° East  Level Estimated
10:48PM 32.1079 114.9071 97° East  Level Estimated
10:49PM 32.0928 115.0409 98° East  Level Estimated
10:50PM 32.0776 115.1748 98° East  Level Estimated
10:51PM 32.0623 115.3085 98° East  Level Estimated
10:52PM 32.0468 115.4422 98° East  Level Estimated
10:53PM 32.0312 115.5759 98° East  Level Estimated
10:54PM 32.0154 115.7095 98° East  Level Estimated
10:55PM 31.9995 115.8431 98° East  Level Estimated
10:56PM 31.9835 115.9766 98° East  Level Estimated
10:57PM 31.9673 116.1101 98° East  Level Estimated
10:58PM 31.9510 116.2435 98° East  Level Estimated
10:59PM 31.9345 116.3769 98° East  Level Estimated
11:00PM 31.9179 116.5102 98° East  Level Estimated
11:01PM 31.9012 116.6435 98° East  Level Estimated
11:02PM 31.8843 116.7767 98° East  Level Estimated
11:03PM 31.8673 116.9099 99° East  Level Estimated
11:04PM 31.8501 117.0431 99° East  Level Estimated
11:05PM 31.8329 117.1762 99° East  Level Estimated
11:06PM 31.8154 117.3092 99° East  Level Estimated
11:07PM 31.7979 117.4422 99° East  Level Estimated
11:08PM 31.7801 117.5751 99° East  Level Estimated
11:09PM 31.7623 117.7080 99° East  Level Estimated
11:10PM 31.7443 117.8409 99° East  Level Estimated
11:11PM 31.7262 117.9736 99° East  Level Estimated
11:12PM 31.7079 118.1064 99° East  Level Estimated
11:13PM 31.6895 118.2391 99° East  Level Estimated
11:14PM 31.6710 118.3717 99° East  Level Estimated
11:15PM 31.6523 118.5042 99° East  Level Estimated
11:16PM 31.6335 118.6368 99° East  Level Estimated
11:17PM 31.6146 118.7692 99° East  Level Estimated
11:18PM 31.5955 118.9016 100° East  Level Estimated
11:19PM 31.5763 119.0340 100° East  Level Estimated
11:20PM 31.5569 119.1663 100° East  Level Estimated
11:21PM 31.5374 119.2986 100° East  Level Estimated
11:22PM 31.5178 119.4307 100° East  Level Estimated
11:22PM 31.5550 120.4410 100° East 408 470 20,700  Level FlightAware
11:22PM 31.5380 120.4980 109° East 407 468 20,700  Level FlightAware
11:23PM 31.4980 119.5629 100° East  Level Estimated
11:23PM 31.5110 120.5870 110° East 407 468 20,700  Level FlightAware
11:24PM 31.4930 120.6470 109° East 409 471 20,500 -1,080 Descending FlightAware
11:24PM 31.4660 120.7380 109° East 396 456 19,400 -1,500 Descending FlightAware
11:25PM 31.4440 120.8090 110° East 386 444 18,500 -1,680 Descending FlightAware
11:25PM 31.4220 120.8800 110° East 385 443 17,500 -1,740 Descending FlightAware
11:26PM 31.4010 120.9480 110° East 377 434 16,500 -1,680 Descending FlightAware
11:27PM 31.3780 121.0240 110° East 369 425 15,500 -1,560 Descending FlightAware
11:27PM 31.3560 121.0930 110° East 366 421 14,500 -1,680 Descending FlightAware
11:28PM 31.3480 121.1100 119° Southeast 361 415 14,200 -1,140 Descending FlightAware
11:28PM 31.3220 121.1400 135° Southeast 341 392 13,900 -420 Descending FlightAware
11:29PM 31.2730 121.1890 139° Southeast 344 396 13,800 -540 Descending FlightAware
11:29PM 31.2310 121.2320 139° Southeast 353 406 13,300 -900 Descending FlightAware
11:30PM 31.1890 121.2740 139° Southeast 354 407 12,800 -780 Descending FlightAware
11:30PM 31.1390 121.3270 138° Southeast 349 402 12,300 -720 Descending FlightAware
11:31PM 31.1300 121.3410 127° Southeast 349 402 12,200 -1,020 Descending FlightAware
11:31PM 31.1250 121.3600 107° East 348 400 12,000 -1,200 Descending FlightAware
11:31PM 31.1250 121.4330 90° East 339 390 11,200 -1,320 Descending FlightAware
11:32PM 31.1270 121.4870 88° East 331 381 10,500 -1,080 Descending FlightAware
11:33PM 31.1280 121.5490 89° East 306 352 10,000 -960 Descending FlightAware
11:33PM 31.1290 121.5810 88° East 300 345 9,600 -1,380 Descending FlightAware
11:33PM 31.1290 121.6220 90° East 295 339 9,000 -1,440 Descending FlightAware
11:33PM 31.1290 121.6430 90° East 291 335 8,700 -1,380 Descending FlightAware
11:34PM 31.1260 121.6550 106° East 290 334 8,400 -1,920 Descending FlightAware
11:34PM 31.1210 121.6660 118° Southeast 292 336 8,200 -2,340 Descending FlightAware
11:34PM 31.1100 121.6780 137° Southeast 285 328 7,900 -1,500 Descending FlightAware
11:34PM 31.1060 121.6810 147° Southeast 284 327 7,800 -1,200 Descending FlightAware
11:34PM 31.1000 121.6840 157° South 282 325 7,700 -480 Descending FlightAware
11:34PM 31.0890 121.6880 163° South 284 327 7,700 -480 Level FlightAware
11:35PM 31.0680 121.6960 162° South 271 312 7,500 -720 Descending FlightAware
11:35PM 31.0440 121.7050 162° South 259 298 7,300 -600 Descending FlightAware
11:35PM 31.0220 121.7140 161° South 242 278 7,100 -780 Descending FlightAware
11:35PM 31.0000 121.7220 163° South 235 270 6,800 -1,140 Descending FlightAware
11:36PM 30.9800 121.7290 163° South 241 277 6,400 -1,200 Descending FlightAware
11:36PM 30.9520 121.7400 161° South 238 274 5,900 -1,080 Descending FlightAware
11:37PM 30.9310 121.7470 164° South 234 269 5,600 -780 Descending FlightAware
11:37PM 30.8970 121.7600 162° South 217 250 5,200 -960 Descending FlightAware
11:37PM 30.8790 121.7660 164° South 207 238 4,800 -1,200 Descending FlightAware
11:38PM 30.8580 121.7740 162° South 207 238 4,400 -540 Descending FlightAware
11:38PM 30.8290 121.7860 160° South 207 238 4,300 -540 Descending FlightAware
11:39PM 30.8020 121.7950 164° South 206 237 3,900 -600 Descending FlightAware
11:39PM 30.7830 121.8040 158° South 210 242 3,900  Level FlightAware
11:39PM 30.7800 121.8070 139° Southeast 201 231 3,900  Level FlightAware
11:39PM 30.7770 121.8120 125° Southeast 203 234 3,900  Level FlightAware
11:40PM 30.7740 121.8220 109° East 193 222 3,900  Level FlightAware
11:40PM 30.7770 121.8470 82° East 188 216 3,900  Level FlightAware
11:40PM 30.7820 121.8710 76° East 184 212 3,900  Level FlightAware
11:40PM 30.7830 121.8740 69° East 179 206 3,900  Level FlightAware
11:40PM 30.7870 121.8790 47° Northeast 181 208 3,900  Level FlightAware
11:41PM 30.7900 121.8810 30° Northeast 172 198 3,900  Level FlightAware
11:41PM 30.8030 121.8850 15° North 181 208 3,900  Level FlightAware
11:41PM 30.8230 121.8910 14° North 181 208 3,900  Level FlightAware
11:42PM 30.8390 121.8950 12° North 181 208 3,900  Level FlightAware
11:42PM 30.8690 121.8910 353° North 184 212 3,900  Level FlightAware
11:43PM 30.8850 121.8850 342° North 187 215 3,900  Level FlightAware
11:43PM 30.9000 121.8790 341° North 187 215 3,900  Level FlightAware
11:43PM 30.9180 121.8730 344° North 184 212 3,900 -180 Level FlightAware
11:44PM 30.9340 121.8660 339° North 188 216 3,800 -720 Descending FlightAware
11:44PM 30.9550 121.8590 344° North 186 214 3,400 -1,020 Descending FlightAware
11:44PM 30.9720 121.8520 341° North 185 213 3,100 -1,080 Descending FlightAware
11:45PM 30.9920 121.8450 343° North 175 201 2,600 -1,020 Descending FlightAware
11:45PM 31.0040 121.8400 340° North 167 192 2,400 -300 Descending FlightAware
11:45PM 31.0190 121.8340 341° North 167 192 2,400 -900 Level FlightAware
11:46PM 31.0350 121.8290 345° North 153 176 1,800 -1,320 Descending FlightAware
11:46PM 31.0470 121.8240 340° North 137 158 1,600 -720 Descending FlightAware
11:46PM 31.0610 121.8190 343° North 116 133 1,300 -720 Descending FlightAware
11:47PM 31.0710 121.8150 341° North 118 136 1,100 -240 Descending FlightAware
11:47PM 31.0850 121.8090 340° North 118 136 1,100 -540 Level FlightAware
11:47PM 31.0950 121.8060 346° North 118 136 700 -1,200 Descending FlightAware
11:48PM 31.1040 121.8030 344° North 121 139 500 -420 Descending FlightAware
11:48PM 31.1250 121.7950 342° North 122 140 300 -300 Descending FlightAware
11:51PM 31.1428 121.7924 353° North  Level Estimated
11:52PM 31.1428 121.7924 221° Southwest  Level Estimated
11:53PM 31.1428 121.7924 221° Southwest  Level Estimated
11:54PM 31.1428 121.7924 221° Southwest  Level Estimated